sensor_id;sensor_type;location;lat;lon;timestamp;P1;durP1;ratioP1;P2;durP2;ratioP2
66400;SDS011;53211;45.040;38.788;2022-10-16T00:01:22;509.45;;;159.75;;
66400;SDS011;53211;45.040;38.788;2022-10-16T00:03:50;494.15;;;132.60;;
66400;SDS011;53211;45.040;38.788;2022-10-16T00:08:44;483.70;;;121.07;;
66400;SDS011;53211;45.040;38.788;2022-10-16T00:16:11;468.50;;;81.80;;
66400;SDS011;53211;45.040;38.788;2022-10-16T00:21:08;582.45;;;251.85;;
66400;SDS011;53211;45.040;38.788;2022-10-16T00:31:18;547.03;;;250.32;;
66400;SDS011;53211;45.040;38.788;2022-10-16T00:53:15;524.15;;;181.10;;
66400;SDS011;53211;45.040;38.788;2022-10-16T00:55:42;543.97;;;203.53;;
66400;SDS011;53211;45.040;38.788;2022-10-16T00:58:09;526.47;;;212.73;;
66400;SDS011;53211;45.040;38.788;2022-10-16T01:00:35;564.75;;;249.75;;
66400;SDS011;53211;45.040;38.788;2022-10-16T01:03:02;535.70;;;211.60;;
66400;SDS011;53211;45.040;38.788;2022-10-16T01:08:03;519.90;;;193.98;;
66400;SDS011;53211;45.040;38.788;2022-10-16T01:10:35;571.30;;;225.85;;
66400;SDS011;53211;45.040;38.788;2022-10-16T01:13:19;533.50;;;229.00;;
66400;SDS011;53211;45.040;38.788;2022-10-16T01:16:00;552.35;;;214.60;;
66400;SDS011;53211;45.040;38.788;2022-10-16T01:21:22;551.17;;;243.23;;
66400;SDS011;53211;45.040;38.788;2022-10-16T01:24:02;484.70;;;103.30;;
66400;SDS011;53211;45.040;38.788;2022-10-16T01:27:03;541.90;;;184.70;;
66400;SDS011;53211;45.040;38.788;2022-10-16T01:35:02;551.50;;;254.80;;
66400;SDS011;53211;45.040;38.788;2022-10-16T01:37:39;524.10;;;199.10;;
66400;SDS011;53211;45.040;38.788;2022-10-16T01:40:12;533.10;;;223.30;;
66400;SDS011;53211;45.040;38.788;2022-10-16T01:42:43;528.25;;;211.95;;
66400;SDS011;53211;45.040;38.788;2022-10-16T01:45:13;534.30;;;218.95;;
66400;SDS011;53211;45.040;38.788;2022-10-16T01:47:43;572.30;;;252.80;;
66400;SDS011;53211;45.040;38.788;2022-10-16T01:50:10;548.10;;;248.70;;
66400;SDS011;53211;45.040;38.788;2022-10-16T01:52:41;550.75;;;249.07;;
66400;SDS011;53211;45.040;38.788;2022-10-16T01:55:10;586.70;;;231.33;;
66400;SDS011;53211;45.040;38.788;2022-10-16T01:57:39;587.65;;;231.75;;
66400;SDS011;53211;45.040;38.788;2022-10-16T02:00:10;591.40;;;227.60;;
66400;SDS011;53211;45.040;38.788;2022-10-16T02:02:43;606.20;;;214.90;;
66400;SDS011;53211;45.040;38.788;2022-10-16T02:07:49;588.35;;;226.50;;
66400;SDS011;53211;45.040;38.788;2022-10-16T02:10:15;585.30;;;234.60;;
66400;SDS011;53211;45.040;38.788;2022-10-16T02:12:44;577.03;;;240.20;;
66400;SDS011;53211;45.040;38.788;2022-10-16T02:17:41;473.50;;;101.80;;
66400;SDS011;53211;45.040;38.788;2022-10-16T02:20:09;562.00;;;246.00;;
66400;SDS011;53211;45.040;38.788;2022-10-16T02:22:36;490.45;;;127.25;;
66400;SDS011;53211;45.040;38.788;2022-10-16T02:25:10;505.95;;;141.55;;
66400;SDS011;53211;45.040;38.788;2022-10-16T02:27:59;506.80;;;156.60;;
66400;SDS011;53211;45.040;38.788;2022-10-16T02:30:36;539.67;;;185.55;;
66400;SDS011;53211;45.040;38.788;2022-10-16T02:33:13;517.37;;;155.60;;
66400;SDS011;53211;45.040;38.788;2022-10-16T02:35:41;558.22;;;202.18;;
66400;SDS011;53211;45.040;38.788;2022-10-16T02:38:09;539.33;;;169.47;;
66400;SDS011;53211;45.040;38.788;2022-10-16T02:40:36;571.38;;;205.07;;
66400;SDS011;53211;45.040;38.788;2022-10-16T02:43:03;503.93;;;142.27;;
66400;SDS011;53211;45.040;38.788;2022-10-16T02:45:30;496.70;;;132.52;;
66400;SDS011;53211;45.040;38.788;2022-10-16T02:47:56;524.05;;;173.10;;
66400;SDS011;53211;45.040;38.788;2022-10-16T02:50:22;599.37;;;210.23;;
66400;SDS011;53211;45.040;38.788;2022-10-16T02:52:50;521.70;;;194.60;;
66400;SDS011;53211;45.040;38.788;2022-10-16T02:55:16;530.67;;;217.20;;
66400;SDS011;53211;45.040;38.788;2022-10-16T02:57:43;505.15;;;151.60;;
66400;SDS011;53211;45.040;38.788;2022-10-16T03:00:10;512.13;;;167.75;;
66400;SDS011;53211;45.040;38.788;2022-10-16T03:02:39;547.10;;;238.30;;
66400;SDS011;53211;45.040;38.788;2022-10-16T03:05:05;536.70;;;230.97;;
66400;SDS011;53211;45.040;38.788;2022-10-16T03:07:32;540.55;;;234.82;;
66400;SDS011;53211;45.040;38.788;2022-10-16T03:09:59;602.00;;;214.00;;
66400;SDS011;53211;45.040;38.788;2022-10-16T03:12:28;537.60;;;226.90;;
66400;SDS011;53211;45.040;38.788;2022-10-16T03:14:55;537.95;;;208.70;;
66400;SDS011;53211;45.040;38.788;2022-10-16T03:17:22;557.03;;;249.63;;
66400;SDS011;53211;45.040;38.788;2022-10-16T03:19:48;591.55;;;184.80;;
66400;SDS011;53211;45.040;38.788;2022-10-16T03:22:14;519.03;;;196.50;;
66400;SDS011;53211;45.040;38.788;2022-10-16T03:24:40;475.90;;;97.60;;
66400;SDS011;53211;45.040;38.788;2022-10-16T03:27:06;516.83;;;188.13;;
66400;SDS011;53211;45.040;38.788;2022-10-16T03:29:32;480.50;;;96.80;;
66400;SDS011;53211;45.040;38.788;2022-10-16T03:34:24;477.80;;;106.90;;
66400;SDS011;53211;45.040;38.788;2022-10-16T03:36:51;506.77;;;121.50;;
66400;SDS011;53211;45.040;38.788;2022-10-16T03:41:43;511.60;;;167.82;;
66400;SDS011;53211;45.040;38.788;2022-10-16T03:44:09;506.60;;;158.38;;
66400;SDS011;53211;45.040;38.788;2022-10-16T03:46:35;569.00;;;254.60;;
66400;SDS011;53211;45.040;38.788;2022-10-16T03:49:01;521.75;;;188.85;;
66400;SDS011;53211;45.040;38.788;2022-10-16T03:51:27;562.00;;;248.50;;
66400;SDS011;53211;45.040;38.788;2022-10-16T03:53:53;571.38;;;241.18;;
66400;SDS011;53211;45.040;38.788;2022-10-16T03:56:19;601.00;;;211.80;;
66400;SDS011;53211;45.040;38.788;2022-10-16T03:58:45;618.50;;;201.60;;
66400;SDS011;53211;45.040;38.788;2022-10-16T04:01:11;478.30;;;99.00;;
66400;SDS011;53211;45.040;38.788;2022-10-16T04:03:37;474.25;;;106.80;;
66400;SDS011;53211;45.040;38.788;2022-10-16T04:06:03;479.90;;;106.65;;
66400;SDS011;53211;45.040;38.788;2022-10-16T04:08:29;507.75;;;131.80;;
66400;SDS011;53211;45.040;38.788;2022-10-16T04:10:55;505.40;;;131.00;;
66400;SDS011;53211;45.040;38.788;2022-10-16T04:13:21;500.42;;;118.65;;
66400;SDS011;53211;45.040;38.788;2022-10-16T04:18:13;603.40;;;219.00;;
66400;SDS011;53211;45.040;38.788;2022-10-16T04:20:39;502.55;;;145.40;;
66400;SDS011;53211;45.040;38.788;2022-10-16T04:23:06;506.13;;;160.50;;
66400;SDS011;53211;45.040;38.788;2022-10-16T04:25:32;496.50;;;138.75;;
66400;SDS011;53211;45.040;38.788;2022-10-16T04:40:11;553.53;;;256.23;;
66400;SDS011;53211;45.040;38.788;2022-10-16T04:42:38;545.70;;;250.90;;
66400;SDS011;53211;45.040;38.788;2022-10-16T04:45:04;514.97;;;179.68;;
66400;SDS011;53211;45.040;38.788;2022-10-16T04:47:31;654.20;;;181.27;;
66400;SDS011;53211;45.040;38.788;2022-10-16T04:49:57;533.73;;;216.33;;
66400;SDS011;53211;45.040;38.788;2022-10-16T04:52:25;533.60;;;217.80;;
66400;SDS011;53211;45.040;38.788;2022-10-16T04:54:51;512.67;;;170.35;;
66400;SDS011;53211;45.040;38.788;2022-10-16T04:57:17;528.80;;;209.40;;
66400;SDS011;53211;45.040;38.788;2022-10-16T04:59:43;538.70;;;208.65;;
66400;SDS011;53211;45.040;38.788;2022-10-16T05:02:09;561.70;;;223.30;;
66400;SDS011;53211;45.040;38.788;2022-10-16T05:04:35;571.70;;;232.40;;
66400;SDS011;53211;45.040;38.788;2022-10-16T05:07:01;593.80;;;222.40;;
66400;SDS011;53211;45.040;38.788;2022-10-16T05:09:27;586.90;;;231.50;;
66400;SDS011;53211;45.040;38.788;2022-10-16T05:11:53;647.53;;;182.33;;
66400;SDS011;53211;45.040;38.788;2022-10-16T05:14:19;642.65;;;188.65;;
66400;SDS011;53211;45.040;38.788;2022-10-16T05:16:45;567.80;;;245.00;;
66400;SDS011;53211;45.040;38.788;2022-10-16T05:19:13;523.10;;;156.10;;
66400;SDS011;53211;45.040;38.788;2022-10-16T05:21:40;596.90;;;225.70;;
66400;SDS011;53211;45.040;38.788;2022-10-16T05:24:06;557.30;;;250.95;;
66400;SDS011;53211;45.040;38.788;2022-10-16T05:26:31;581.03;;;247.07;;
66400;SDS011;53211;45.040;38.788;2022-10-16T05:28:57;591.65;;;234.88;;
66400;SDS011;53211;45.040;38.788;2022-10-16T05:31:23;569.80;;;241.47;;
66400;SDS011;53211;45.040;38.788;2022-10-16T05:33:49;590.47;;;239.15;;
66400;SDS011;53211;45.040;38.788;2022-10-16T05:36:15;597.33;;;231.90;;
66400;SDS011;53211;45.040;38.788;2022-10-16T05:38:43;610.90;;;222.40;;
66400;SDS011;53211;45.040;38.788;2022-10-16T05:41:09;590.60;;;236.90;;
66400;SDS011;53211;45.040;38.788;2022-10-16T05:43:35;673.15;;;183.05;;
66400;SDS011;53211;45.040;38.788;2022-10-16T05:46:03;684.75;;;177.25;;
66400;SDS011;53211;45.040;38.788;2022-10-16T05:48:30;576.50;;;257.00;;
66400;SDS011;53211;45.040;38.788;2022-10-16T05:50:58;596.35;;;244.35;;
66400;SDS011;53211;45.040;38.788;2022-10-16T05:53:24;595.90;;;239.55;;
66400;SDS011;53211;45.040;38.788;2022-10-16T05:55:54;618.20;;;212.85;;
66400;SDS011;53211;45.040;38.788;2022-10-16T05:58:22;634.70;;;196.90;;
66400;SDS011;53211;45.040;38.788;2022-10-16T06:00:52;643.25;;;191.85;;
66400;SDS011;53211;45.040;38.788;2022-10-16T06:03:22;623.25;;;209.80;;
66400;SDS011;53211;45.040;38.788;2022-10-16T06:05:48;633.50;;;202.25;;
66400;SDS011;53211;45.040;38.788;2022-10-16T06:08:15;640.45;;;194.45;;
66400;SDS011;53211;45.040;38.788;2022-10-16T06:10:43;646.05;;;190.40;;
66400;SDS011;53211;45.040;38.788;2022-10-16T06:13:10;644.13;;;197.00;;
66400;SDS011;53211;45.040;38.788;2022-10-16T06:15:37;666.50;;;177.00;;
66400;SDS011;53211;45.040;38.788;2022-10-16T06:18:04;632.70;;;203.57;;
66400;SDS011;53211;45.040;38.788;2022-10-16T06:20:31;647.65;;;191.55;;
66400;SDS011;53211;45.040;38.788;2022-10-16T06:22:57;650.70;;;189.60;;
66400;SDS011;53211;45.040;38.788;2022-10-16T06:25:23;672.70;;;176.70;;
66400;SDS011;53211;45.040;38.788;2022-10-16T06:27:49;631.47;;;205.13;;
66400;SDS011;53211;45.040;38.788;2022-10-16T06:30:15;644.10;;;197.05;;
66400;SDS011;53211;45.040;38.788;2022-10-16T06:32:42;648.10;;;189.50;;
66400;SDS011;53211;45.040;38.788;2022-10-16T06:35:08;620.70;;;223.60;;
66400;SDS011;53211;45.040;38.788;2022-10-16T06:37:34;649.20;;;189.55;;
66400;SDS011;53211;45.040;38.788;2022-10-16T06:40:04;651.50;;;190.65;;
66400;SDS011;53211;45.040;38.788;2022-10-16T06:42:30;621.10;;;228.05;;
66400;SDS011;53211;45.040;38.788;2022-10-16T06:44:57;621.30;;;232.55;;
66400;SDS011;53211;45.040;38.788;2022-10-16T06:47:23;616.55;;;235.15;;
66400;SDS011;53211;45.040;38.788;2022-10-16T06:49:49;629.57;;;219.07;;
66400;SDS011;53211;45.040;38.788;2022-10-16T06:52:15;657.65;;;182.90;;
66400;SDS011;53211;45.040;38.788;2022-10-16T06:54:41;655.80;;;187.00;;
66400;SDS011;53211;45.040;38.788;2022-10-16T06:57:07;651.23;;;189.10;;
66400;SDS011;53211;45.040;38.788;2022-10-16T06:59:33;643.33;;;192.80;;
66400;SDS011;53211;45.040;38.788;2022-10-16T07:01:59;651.00;;;192.90;;
66400;SDS011;53211;45.040;38.788;2022-10-16T07:04:25;648.50;;;194.15;;
66400;SDS011;53211;45.040;38.788;2022-10-16T07:06:51;648.00;;;193.30;;
66400;SDS011;53211;45.040;38.788;2022-10-16T07:09:17;646.20;;;194.30;;
66400;SDS011;53211;45.040;38.788;2022-10-16T07:11:43;646.55;;;196.95;;
66400;SDS011;53211;45.040;38.788;2022-10-16T07:14:14;644.65;;;199.40;;
66400;SDS011;53211;45.040;38.788;2022-10-16T07:16:42;642.33;;;200.67;;
66400;SDS011;53211;45.040;38.788;2022-10-16T07:19:08;631.85;;;213.55;;
66400;SDS011;53211;45.040;38.788;2022-10-16T07:21:39;653.33;;;196.33;;
66400;SDS011;53211;45.040;38.788;2022-10-16T07:24:10;639.20;;;207.10;;
66400;SDS011;53211;45.040;38.788;2022-10-16T07:26:38;620.23;;;221.67;;
66400;SDS011;53211;45.040;38.788;2022-10-16T07:29:16;640.40;;;212.60;;
66400;SDS011;53211;45.040;38.788;2022-10-16T07:31:44;594.40;;;252.90;;
66400;SDS011;53211;45.040;38.788;2022-10-16T07:34:11;525.95;;;145.75;;
66400;SDS011;53211;45.040;38.788;2022-10-16T07:36:39;612.75;;;231.00;;
66400;SDS011;53211;45.040;38.788;2022-10-16T07:39:05;626.50;;;230.40;;
66400;SDS011;53211;45.040;38.788;2022-10-16T07:41:31;581.90;;;254.45;;
66400;SDS011;53211;45.040;38.788;2022-10-16T07:43:58;653.05;;;199.35;;
66400;SDS011;53211;45.040;38.788;2022-10-16T07:46:26;586.30;;;257.98;;
66400;SDS011;53211;45.040;38.788;2022-10-16T07:48:52;591.25;;;258.80;;
66400;SDS011;53211;45.040;38.788;2022-10-16T07:51:19;622.77;;;233.00;;
66400;SDS011;53211;45.040;38.788;2022-10-16T07:53:47;625.07;;;230.07;;
66400;SDS011;53211;45.040;38.788;2022-10-16T07:56:14;634.97;;;223.57;;
66400;SDS011;53211;45.040;38.788;2022-10-16T07:58:41;628.90;;;229.95;;
66400;SDS011;53211;45.040;38.788;2022-10-16T08:01:08;622.67;;;238.00;;
66400;SDS011;53211;45.040;38.788;2022-10-16T08:03:36;590.00;;;240.00;;
66400;SDS011;53211;45.040;38.788;2022-10-16T08:06:03;604.47;;;250.30;;
66400;SDS011;53211;45.040;38.788;2022-10-16T08:08:30;607.50;;;253.75;;
66400;SDS011;53211;45.040;38.788;2022-10-16T08:10:56;601.35;;;253.70;;
66400;SDS011;53211;45.040;38.788;2022-10-16T08:13:22;641.30;;;213.15;;
66400;SDS011;53211;45.040;38.788;2022-10-16T08:15:48;690.43;;;179.07;;
66400;SDS011;53211;45.040;38.788;2022-10-16T08:18:14;642.70;;;219.10;;
66400;SDS011;53211;45.040;38.788;2022-10-16T08:20:41;639.30;;;212.25;;
66400;SDS011;53211;45.040;38.788;2022-10-16T08:23:08;599.20;;;251.57;;
66400;SDS011;53211;45.040;38.788;2022-10-16T08:25:37;637.65;;;228.00;;
66400;SDS011;53211;45.040;38.788;2022-10-16T08:28:04;631.47;;;226.23;;
66400;SDS011;53211;45.040;38.788;2022-10-16T08:30:31;624.50;;;234.25;;
66400;SDS011;53211;45.040;38.788;2022-10-16T08:32:57;629.50;;;230.70;;
66400;SDS011;53211;45.040;38.788;2022-10-16T08:35:23;640.85;;;223.85;;
66400;SDS011;53211;45.040;38.788;2022-10-16T08:37:52;635.80;;;226.80;;
66400;SDS011;53211;45.040;38.788;2022-10-16T08:40:22;642.30;;;232.00;;
66400;SDS011;53211;45.040;38.788;2022-10-16T08:51:26;637.85;;;225.20;;
66400;SDS011;53211;45.040;38.788;2022-10-16T08:53:56;625.10;;;225.15;;
66400;SDS011;53211;45.040;38.788;2022-10-16T08:56:22;632.45;;;227.90;;
66400;SDS011;53211;45.040;38.788;2022-10-16T08:58:49;639.00;;;223.45;;
66400;SDS011;53211;45.040;38.788;2022-10-16T09:01:17;625.50;;;239.65;;
66400;SDS011;53211;45.040;38.788;2022-10-16T09:10:00;664.80;;;207.00;;
66400;SDS011;53211;45.040;38.788;2022-10-16T09:12:37;669.55;;;202.00;;
66400;SDS011;53211;45.040;38.788;2022-10-16T09:20:49;668.40;;;206.60;;
66400;SDS011;53211;45.040;38.788;2022-10-16T09:23:22;674.05;;;206.85;;
66400;SDS011;53211;45.040;38.788;2022-10-16T09:26:00;637.07;;;239.07;;
66400;SDS011;53211;45.040;38.788;2022-10-16T09:28:26;673.55;;;204.85;;
66400;SDS011;53211;45.040;38.788;2022-10-16T09:30:52;689.05;;;189.40;;
66400;SDS011;53211;45.040;38.788;2022-10-16T09:33:20;650.20;;;220.20;;
66400;SDS011;53211;45.040;38.788;2022-10-16T09:35:54;675.50;;;200.80;;
66400;SDS011;53211;45.040;38.788;2022-10-16T09:38:27;684.85;;;194.05;;
66400;SDS011;53211;45.040;38.788;2022-10-16T09:40:58;681.30;;;195.25;;
66400;SDS011;53211;45.040;38.788;2022-10-16T09:43:28;681.33;;;195.80;;
66400;SDS011;53211;45.040;38.788;2022-10-16T09:46:08;666.37;;;207.70;;
66400;SDS011;53211;45.040;38.788;2022-10-16T09:48:47;662.95;;;219.95;;
66400;SDS011;53211;45.040;38.788;2022-10-16T09:51:19;659.83;;;215.30;;
66400;SDS011;53211;45.040;38.788;2022-10-16T09:53:53;662.50;;;207.80;;
66400;SDS011;53211;45.040;38.788;2022-10-16T09:56:29;649.20;;;223.90;;
66400;SDS011;53211;45.040;38.788;2022-10-16T09:58:59;653.00;;;218.10;;
66400;SDS011;53211;45.040;38.788;2022-10-16T10:01:30;661.95;;;211.20;;
66400;SDS011;53211;45.040;38.788;2022-10-16T10:04:03;655.90;;;216.30;;
66400;SDS011;53211;45.040;38.788;2022-10-16T10:06:51;648.85;;;216.10;;
66400;SDS011;53211;45.040;38.788;2022-10-16T10:11:52;655.27;;;215.53;;
66400;SDS011;53211;45.040;38.788;2022-10-16T10:17:23;648.30;;;227.70;;
66400;SDS011;53211;45.040;38.788;2022-10-16T10:25:14;665.20;;;210.60;;
66400;SDS011;53211;45.040;38.788;2022-10-16T10:31:10;674.30;;;203.60;;
66400;SDS011;53211;45.040;38.788;2022-10-16T10:39:09;664.55;;;212.55;;
66400;SDS011;53211;45.040;38.788;2022-10-16T10:44:55;667.70;;;214.45;;
66400;SDS011;53211;45.040;38.788;2022-10-16T10:58:08;723.70;;;176.45;;
66400;SDS011;53211;45.040;38.788;2022-10-16T11:06:20;690.83;;;195.53;;
66400;SDS011;53211;45.040;38.788;2022-10-16T11:08:53;682.75;;;199.05;;
66400;SDS011;53211;45.040;38.788;2022-10-16T11:14:33;667.50;;;213.03;;
66400;SDS011;53211;45.040;38.788;2022-10-16T11:17:11;678.97;;;204.07;;
66400;SDS011;53211;45.040;38.788;2022-10-16T11:19:54;676.95;;;202.30;;
66400;SDS011;53211;45.040;38.788;2022-10-16T11:22:35;650.10;;;218.95;;
66400;SDS011;53211;45.040;38.788;2022-10-16T11:25:11;668.20;;;214.35;;
66400;SDS011;53211;45.040;38.788;2022-10-16T11:36:39;689.30;;;198.70;;
66400;SDS011;53211;45.040;38.788;2022-10-16T11:39:22;665.05;;;215.85;;
66400;SDS011;53211;45.040;38.788;2022-10-16T11:41:53;650.50;;;226.90;;
66400;SDS011;53211;45.040;38.788;2022-10-16T11:44:40;615.95;;;260.90;;
66400;SDS011;53211;45.040;38.788;2022-10-16T11:50:13;661.00;;;226.80;;
66400;SDS011;53211;45.040;38.788;2022-10-16T11:55:42;662.03;;;222.57;;
66400;SDS011;53211;45.040;38.788;2022-10-16T12:08:58;675.50;;;209.00;;
66400;SDS011;53211;45.040;38.788;2022-10-16T12:13:51;621.27;;;253.00;;
66400;SDS011;53211;45.040;38.788;2022-10-16T12:19:23;597.10;;;243.40;;
66400;SDS011;53211;45.040;38.788;2022-10-16T12:24:27;607.55;;;209.20;;
66400;SDS011;53211;45.040;38.788;2022-10-16T12:26:55;544.00;;;153.00;;
66400;SDS011;53211;45.040;38.788;2022-10-16T12:29:23;674.80;;;219.35;;
66400;SDS011;53211;45.040;38.788;2022-10-16T12:31:59;546.90;;;159.30;;
66400;SDS011;53211;45.040;38.788;2022-10-16T12:34:37;583.70;;;193.30;;
66400;SDS011;53211;45.040;38.788;2022-10-16T12:39:37;626.97;;;261.90;;
66400;SDS011;53211;45.040;38.788;2022-10-16T12:42:05;712.20;;;183.50;;
66400;SDS011;53211;45.040;38.788;2022-10-16T12:44:45;659.60;;;229.15;;
66400;SDS011;53211;45.040;38.788;2022-10-16T12:47:24;600.65;;;264.50;;
66400;SDS011;53211;45.040;38.788;2022-10-16T12:55:09;547.03;;;178.07;;
66400;SDS011;53211;45.040;38.788;2022-10-16T13:21:54;525.90;;;133.13;;
66400;SDS011;53211;45.040;38.788;2022-10-16T13:27:41;552.77;;;192.03;;
66400;SDS011;53211;45.040;38.788;2022-10-16T13:35:27;600.95;;;238.05;;
66400;SDS011;53211;45.040;38.788;2022-10-16T13:40:47;550.03;;;173.23;;
66400;SDS011;53211;45.040;38.788;2022-10-16T13:43:18;510.35;;;95.95;;
66400;SDS011;53211;45.040;38.788;2022-10-16T13:45:54;560.92;;;210.10;;
66400;SDS011;53211;45.040;38.788;2022-10-16T13:48:24;523.50;;;138.60;;
66400;SDS011;53211;45.040;38.788;2022-10-16T13:53:38;516.40;;;120.00;;
66400;SDS011;53211;45.040;38.788;2022-10-16T13:56:07;514.35;;;96.15;;
66400;SDS011;53211;45.040;38.788;2022-10-16T14:03:30;574.50;;;256.33;;
66400;SDS011;53211;45.040;38.788;2022-10-16T14:06:02;496.90;;;99.20;;
66400;SDS011;53211;45.040;38.788;2022-10-16T14:08:34;522.25;;;138.82;;
66400;SDS011;53211;45.040;38.788;2022-10-16T14:11:00;574.78;;;201.40;;
66400;SDS011;53211;45.040;38.788;2022-10-16T14:13:31;547.10;;;196.65;;
66400;SDS011;53211;45.040;38.788;2022-10-16T14:16:05;519.37;;;112.00;;
66400;SDS011;53211;45.040;38.788;2022-10-16T14:18:34;507.60;;;107.65;;
66400;SDS011;53211;45.040;38.788;2022-10-16T14:21:03;517.15;;;126.55;;
66400;SDS011;53211;45.040;38.788;2022-10-16T14:23:37;528.10;;;111.70;;
66400;SDS011;53211;45.040;38.788;2022-10-16T14:26:05;525.88;;;140.48;;
66400;SDS011;53211;45.040;38.788;2022-10-16T14:28:35;527.75;;;143.60;;
66400;SDS011;53211;45.040;38.788;2022-10-16T14:31:02;519.78;;;124.82;;
66400;SDS011;53211;45.040;38.788;2022-10-16T14:33:51;536.77;;;166.00;;
66400;SDS011;53211;45.040;38.788;2022-10-16T14:36:17;527.90;;;140.90;;
66400;SDS011;53211;45.040;38.788;2022-10-16T14:41:27;523.30;;;137.75;;
66400;SDS011;53211;45.040;38.788;2022-10-16T14:44:05;531.23;;;151.43;;
66400;SDS011;53211;45.040;38.788;2022-10-16T14:46:38;517.88;;;123.40;;
66400;SDS011;53211;45.040;38.788;2022-10-16T14:54:01;528.03;;;147.35;;
66400;SDS011;53211;45.040;38.788;2022-10-16T14:56:29;527.80;;;139.00;;
66400;SDS011;53211;45.040;38.788;2022-10-16T14:58:59;518.20;;;130.47;;
66400;SDS011;53211;45.040;38.788;2022-10-16T15:01:26;525.35;;;132.30;;
66400;SDS011;53211;45.040;38.788;2022-10-16T15:03:52;519.95;;;130.88;;
66400;SDS011;53211;45.040;38.788;2022-10-16T15:06:20;522.40;;;129.70;;
66400;SDS011;53211;45.040;38.788;2022-10-16T15:08:47;520.10;;;131.95;;
66400;SDS011;53211;45.040;38.788;2022-10-16T15:11:14;523.13;;;132.43;;
66400;SDS011;53211;45.040;38.788;2022-10-16T15:13:42;549.30;;;179.00;;
66400;SDS011;53211;45.040;38.788;2022-10-16T15:16:12;512.25;;;123.05;;
66400;SDS011;53211;45.040;38.788;2022-10-16T15:18:40;526.50;;;160.70;;
66400;SDS011;53211;45.040;38.788;2022-10-16T15:21:06;569.80;;;258.15;;
66400;SDS011;53211;45.040;38.788;2022-10-16T15:23:33;544.55;;;202.63;;
66400;SDS011;53211;45.040;38.788;2022-10-16T15:25:59;533.73;;;168.03;;
66400;SDS011;53211;45.040;38.788;2022-10-16T15:30:51;568.03;;;246.63;;
66400;SDS011;53211;45.040;38.788;2022-10-16T15:33:21;680.20;;;183.70;;
66400;SDS011;53211;45.040;38.788;2022-10-16T15:35:58;578.03;;;256.38;;
66400;SDS011;53211;45.040;38.788;2022-10-16T15:38:24;566.47;;;242.95;;
66400;SDS011;53211;45.040;38.788;2022-10-16T15:40:51;562.40;;;237.00;;
66400;SDS011;53211;45.040;38.788;2022-10-16T15:43:17;563.60;;;229.43;;
66400;SDS011;53211;45.040;38.788;2022-10-16T15:45:44;557.07;;;229.37;;
66400;SDS011;53211;45.040;38.788;2022-10-16T15:48:25;598.67;;;246.30;;
66400;SDS011;53211;45.040;38.788;2022-10-16T15:50:51;618.17;;;228.77;;
66400;SDS011;53211;45.040;38.788;2022-10-16T15:53:17;629.95;;;209.00;;
66400;SDS011;53211;45.040;38.788;2022-10-16T15:55:43;584.33;;;253.93;;
66400;SDS011;53211;45.040;38.788;2022-10-16T15:58:09;539.80;;;195.00;;
66400;SDS011;53211;45.040;38.788;2022-10-16T16:00:35;592.65;;;241.85;;
66400;SDS011;53211;45.040;38.788;2022-10-16T16:03:01;550.20;;;218.40;;
66400;SDS011;53211;45.040;38.788;2022-10-16T16:05:27;536.35;;;181.75;;
66400;SDS011;53211;45.040;38.788;2022-10-16T16:07:54;545.78;;;208.57;;
66400;SDS011;53211;45.040;38.788;2022-10-16T16:10:20;517.95;;;136.60;;
66400;SDS011;53211;45.040;38.788;2022-10-16T16:12:47;559.95;;;242.45;;
66400;SDS011;53211;45.040;38.788;2022-10-16T16:15:18;542.10;;;208.57;;
66400;SDS011;53211;45.040;38.788;2022-10-16T16:17:46;553.60;;;217.70;;
66400;SDS011;53211;45.040;38.788;2022-10-16T16:20:12;523.80;;;153.57;;
66400;SDS011;53211;45.040;38.788;2022-10-16T16:22:38;522.47;;;153.68;;
66400;SDS011;53211;45.040;38.788;2022-10-16T16:25:05;545.47;;;215.70;;
66400;SDS011;53211;45.040;38.788;2022-10-16T16:27:31;547.10;;;214.10;;
66400;SDS011;53211;45.040;38.788;2022-10-16T16:30:04;542.80;;;210.68;;
66400;SDS011;53211;45.040;38.788;2022-10-16T16:32:35;532.10;;;177.80;;
66400;SDS011;53211;45.040;38.788;2022-10-16T16:35:01;582.85;;;258.65;;
66400;SDS011;53211;45.040;38.788;2022-10-16T16:37:28;538.95;;;194.50;;
66400;SDS011;53211;45.040;38.788;2022-10-16T16:39:54;532.10;;;174.70;;
66400;SDS011;53211;45.040;38.788;2022-10-16T16:42:24;519.35;;;147.77;;
66400;SDS011;53211;45.040;38.788;2022-10-16T16:44:51;530.10;;;171.02;;
66400;SDS011;53211;45.040;38.788;2022-10-16T16:47:18;533.60;;;179.70;;
66400;SDS011;53211;45.040;38.788;2022-10-16T16:49:44;527.67;;;167.20;;
66400;SDS011;53211;45.040;38.788;2022-10-16T16:52:12;527.50;;;169.70;;
66400;SDS011;53211;45.040;38.788;2022-10-16T16:54:39;528.70;;;170.93;;
66400;SDS011;53211;45.040;38.788;2022-10-16T16:57:05;517.93;;;141.60;;
66400;SDS011;53211;45.040;38.788;2022-10-16T16:59:31;520.15;;;146.35;;
66400;SDS011;53211;45.040;38.788;2022-10-16T17:01:58;519.28;;;148.30;;
66400;SDS011;53211;45.040;38.788;2022-10-16T17:04:25;522.05;;;153.93;;
66400;SDS011;53211;45.040;38.788;2022-10-16T17:06:54;707.90;;;166.30;;
66400;SDS011;53211;45.040;38.788;2022-10-16T17:09:20;706.30;;;169.50;;
66400;SDS011;53211;45.040;38.788;2022-10-16T17:11:47;564.95;;;247.15;;
66400;SDS011;53211;45.040;38.788;2022-10-16T17:14:14;531.67;;;176.00;;
66400;SDS011;53211;45.040;38.788;2022-10-16T17:16:41;517.83;;;145.93;;
66400;SDS011;53211;45.040;38.788;2022-10-16T17:19:11;529.47;;;171.43;;
66400;SDS011;53211;45.040;38.788;2022-10-16T17:21:43;536.30;;;190.15;;
66400;SDS011;53211;45.040;38.788;2022-10-16T17:24:09;543.70;;;202.65;;
66400;SDS011;53211;45.040;38.788;2022-10-16T17:26:36;578.00;;;258.65;;
66400;SDS011;53211;45.040;38.788;2022-10-16T17:29:03;569.57;;;244.63;;
66400;SDS011;53211;45.040;38.788;2022-10-16T17:31:30;573.90;;;261.70;;
66400;SDS011;53211;45.040;38.788;2022-10-16T17:33:59;530.70;;;170.50;;
66400;SDS011;53211;45.040;38.788;2022-10-16T17:36:27;627.93;;;213.40;;
66400;SDS011;53211;45.040;38.788;2022-10-16T17:38:59;628.85;;;212.45;;
66400;SDS011;53211;45.040;38.788;2022-10-16T17:41:32;570.75;;;250.30;;
66400;SDS011;53211;45.040;38.788;2022-10-16T17:43:59;575.58;;;258.17;;